createdAt,value
2023-02-11T00:00:42.645Z,16.03
2023-02-11T00:03:12.358Z,14.77
2023-02-11T00:05:40.849Z,15.47
2023-02-11T00:08:09.206Z,15.33
2023-02-11T00:10:37.569Z,15.23
2023-02-11T00:13:06.090Z,16.03
2023-02-11T00:15:34.407Z,13.37
2023-02-11T00:18:03.181Z,14.13
2023-02-11T00:20:33.022Z,13.20
2023-02-11T00:23:01.371Z,12.90
2023-02-11T00:25:29.785Z,14.23
2023-02-11T00:27:58.348Z,16.23
2023-02-11T00:30:26.722Z,13.63
2023-02-11T00:32:55.153Z,13.37
2023-02-11T00:35:23.564Z,15.80
2023-02-11T00:37:54.640Z,14.13
2023-02-11T00:40:23.066Z,13.17
2023-02-11T00:42:51.434Z,13.93
2023-02-11T00:45:20.971Z,13.43
2023-02-11T00:47:49.387Z,12.50
2023-02-11T00:50:17.785Z,14.27
2023-02-11T00:52:46.123Z,14.43
2023-02-11T00:55:16.074Z,14.43
2023-02-11T00:57:44.586Z,15.40
2023-02-11T01:00:13.978Z,13.70
2023-02-11T01:02:42.297Z,16.10
2023-02-11T01:05:10.825Z,13.57
2023-02-11T01:07:39.301Z,14.90
2023-02-11T01:10:07.994Z,13.33
2023-02-11T01:12:37.865Z,14.10
2023-02-11T01:15:07.321Z,15.63
2023-02-11T01:17:35.946Z,13.10
2023-02-11T01:20:05.040Z,15.20
2023-02-11T01:22:34.385Z,13.87
2023-02-11T01:25:02.825Z,15.17
2023-02-11T01:27:31.232Z,14.20
2023-02-11T01:30:00.981Z,14.17
2023-02-11T01:32:29.301Z,14.10
2023-02-11T01:34:57.753Z,15.90
2023-02-11T01:37:26.254Z,14.80
2023-02-11T01:39:54.663Z,14.60
2023-02-11T01:42:24.554Z,14.83
2023-02-11T01:44:53.514Z,14.63
2023-02-11T01:47:23.551Z,13.13
2023-02-11T01:49:54.782Z,14.57
2023-02-11T01:52:25.498Z,14.90
2023-02-11T01:55:24.937Z,14.17
2023-02-11T01:57:56.392Z,13.63
2023-02-11T02:00:26.814Z,14.13
2023-02-11T02:02:58.476Z,13.13
2023-02-11T02:05:30.483Z,13.27
2023-02-11T02:08:05.841Z,14.23
2023-02-11T02:10:36.023Z,13.63
2023-02-11T02:13:04.436Z,14.73
2023-02-11T02:15:34.560Z,13.17
2023-02-11T02:18:09.058Z,14.67
2023-02-11T02:20:55.066Z,14.43
2023-02-11T02:23:30.399Z,13.13
2023-02-11T02:26:16.508Z,16.03
2023-02-11T02:28:58.159Z,14.60
2023-02-11T02:31:34.392Z,13.07
2023-02-11T02:34:05.468Z,13.57
2023-02-11T02:36:36.064Z,13.70
2023-02-11T02:39:06.764Z,13.33
2023-02-11T02:41:36.594Z,14.70
2023-02-11T02:44:05.151Z,14.33
2023-02-11T02:46:34.940Z,14.70
2023-02-11T02:49:04.865Z,14.73
2023-02-11T02:51:51.146Z,15.17
2023-02-11T02:54:31.364Z,13.00
2023-02-11T02:57:04.625Z,13.00
2023-02-11T02:59:39.757Z,13.17
2023-02-11T03:02:11.976Z,13.03
2023-02-11T03:04:45.442Z,15.10
2023-02-11T03:07:20.227Z,13.23
2023-02-11T03:09:51.553Z,14.60
2023-02-11T03:12:20.448Z,12.30
2023-02-11T03:14:50.177Z,14.27
2023-02-11T03:17:18.677Z,15.10
2023-02-11T03:19:50.089Z,14.13
2023-02-11T03:22:19.921Z,13.83
2023-02-11T03:24:48.598Z,13.50
2023-02-11T03:27:19.991Z,13.57
2023-02-11T03:29:52.038Z,12.13
2023-02-11T03:32:23.146Z,13.33
2023-02-11T03:34:56.000Z,13.13
2023-02-11T03:37:26.038Z,14.57
2023-02-11T03:39:56.392Z,12.93
2023-02-11T03:42:25.427Z,12.33
2023-02-11T03:44:55.585Z,11.23
2023-02-11T03:47:27.136Z,13.90
2023-02-11T03:49:57.431Z,11.30
2023-02-11T03:52:27.279Z,13.20
2023-02-11T03:54:57.640Z,13.03
2023-02-11T03:57:26.018Z,12.63
2023-02-11T03:59:55.607Z,13.37
2023-02-11T04:02:25.225Z,11.67
2023-02-11T04:04:53.650Z,12.30
2023-02-11T04:07:23.203Z,10.20
2023-02-11T04:09:51.627Z,13.70
2023-02-11T04:12:20.112Z,12.37
2023-02-11T04:14:48.569Z,14.67
2023-02-11T04:17:16.918Z,13.87
2023-02-11T04:19:45.322Z,16.03
2023-02-11T04:22:13.696Z,14.17
2023-02-11T04:24:44.143Z,13.30
2023-02-11T04:27:12.523Z,15.33
2023-02-11T04:29:40.939Z,16.33
2023-02-11T04:32:09.345Z,13.77
2023-02-11T04:34:37.867Z,16.40
2023-02-11T04:37:06.225Z,15.80
2023-02-11T04:39:34.622Z,15.20
2023-02-11T04:42:04.135Z,15.83
2023-02-11T04:44:32.667Z,15.07
2023-02-11T04:47:01.135Z,16.20
2023-02-11T04:49:29.483Z,16.77
2023-02-11T04:51:57.883Z,16.23
2023-02-11T04:54:26.297Z,16.70
2023-02-11T04:56:54.637Z,15.57
2023-02-11T04:59:24.319Z,15.93
2023-02-11T05:01:52.742Z,14.80
2023-02-11T05:04:21.165Z,15.13
2023-02-11T05:06:49.605Z,15.00
2023-02-11T05:09:17.957Z,15.33
2023-02-11T05:11:46.464Z,14.33
2023-02-11T05:14:14.892Z,14.93
2023-02-11T05:16:44.892Z,14.77
2023-02-11T05:19:13.648Z,14.60
2023-02-11T05:21:53.173Z,14.97
2023-02-11T05:24:28.996Z,14.63
2023-02-11T05:26:57.393Z,15.43
2023-02-11T05:29:25.745Z,14.70
2023-02-11T05:31:55.469Z,13.40
2023-02-11T05:34:23.848Z,16.03
2023-02-11T05:36:52.284Z,14.43
2023-02-11T05:39:20.674Z,14.77
2023-02-11T05:41:48.716Z,15.10
2023-02-11T05:44:17.128Z,16.30
2023-02-11T05:46:45.600Z,15.50
2023-02-11T05:49:15.418Z,15.33
2023-02-11T05:51:43.748Z,14.77
2023-02-11T05:54:12.134Z,15.40
2023-02-11T05:56:42.119Z,14.83
2023-02-11T05:59:11.613Z,8.77
2023-02-11T06:01:39.986Z,15.80
2023-02-11T06:04:08.369Z,16.20
2023-02-11T06:06:38.492Z,14.40
2023-02-11T06:09:06.837Z,16.87
2023-02-11T06:11:35.214Z,15.63
2023-02-11T06:14:03.667Z,16.90
2023-02-11T06:16:32.143Z,14.60
2023-02-11T06:19:00.594Z,19.57
2023-02-11T06:21:42.981Z,16.03
2023-02-11T06:24:13.516Z,18.30
2023-02-11T06:26:41.888Z,18.17
2023-02-11T06:29:10.217Z,12.93
2023-02-11T06:31:39.845Z,17.17
2023-02-11T06:34:08.377Z,17.43
2023-02-11T06:36:36.805Z,16.43
2023-02-11T06:39:05.387Z,18.20
2023-02-11T06:41:35.370Z,18.00
2023-02-11T06:44:03.720Z,19.50
2023-02-11T06:46:32.142Z,16.33
2023-02-11T06:49:00.662Z,19.90
2023-02-11T06:51:29.423Z,18.07
2023-02-11T06:53:57.843Z,19.03
2023-02-11T06:56:27.499Z,17.93
2023-02-11T06:58:57.445Z,18.23
2023-02-11T07:01:26.761Z,18.27
2023-02-11T07:03:55.480Z,18.57
2023-02-11T07:06:25.704Z,19.03
2023-02-11T07:08:54.093Z,18.97
2023-02-11T07:11:24.367Z,17.60
2023-02-11T07:13:53.241Z,16.80
2023-02-11T07:16:23.405Z,19.43
2023-02-11T07:18:51.814Z,19.80
2023-02-11T07:21:21.337Z,20.00
2023-02-11T07:23:50.288Z,19.37
2023-02-11T07:26:20.010Z,19.30
2023-02-11T07:28:48.493Z,18.63
2023-02-11T07:31:19.283Z,20.07
2023-02-11T07:33:49.186Z,21.50
2023-02-11T07:36:18.367Z,19.33
2023-02-11T07:38:47.225Z,21.70
2023-02-11T07:41:19.217Z,21.03
2023-02-11T07:43:47.569Z,20.63
2023-02-11T07:46:16.624Z,22.53
2023-02-11T07:48:45.078Z,20.70
2023-02-11T07:51:16.222Z,21.20
2023-02-11T07:53:45.006Z,21.67
2023-02-11T07:56:14.693Z,21.37
2023-02-11T07:58:43.425Z,20.87
2023-02-11T08:01:12.664Z,20.47
2023-02-11T08:03:42.026Z,20.53
2023-02-11T08:06:10.979Z,21.67
2023-02-11T08:08:40.985Z,22.03
2023-02-11T08:11:09.761Z,21.77
2023-02-11T08:13:38.352Z,21.10
2023-02-11T08:16:07.473Z,21.90
2023-02-11T08:18:36.391Z,23.10
2023-02-11T08:21:08.047Z,21.63
2023-02-11T08:23:38.110Z,23.63
2023-02-11T08:26:08.998Z,22.93
2023-02-11T08:28:38.094Z,22.30
2023-02-11T08:31:07.270Z,21.33
2023-02-11T08:33:35.873Z,22.47
2023-02-11T08:36:10.365Z,22.77
2023-02-11T08:38:38.645Z,24.50
2023-02-11T08:41:08.674Z,23.77
2023-02-11T08:43:37.264Z,21.37
2023-02-11T08:46:05.819Z,21.90
2023-02-11T08:48:34.112Z,21.40
2023-02-11T08:51:02.585Z,20.60
2023-02-11T08:53:30.912Z,23.03
2023-02-11T08:55:59.291Z,24.07
2023-02-11T08:58:28.962Z,23.20
2023-02-11T09:00:57.410Z,24.77
2023-02-11T09:03:26.092Z,21.73
2023-02-11T09:05:54.828Z,23.63
2023-02-11T09:08:23.281Z,23.03
2023-02-11T09:10:51.946Z,24.00
2023-02-11T09:13:20.501Z,23.67
2023-02-11T09:15:50.663Z,25.03
2023-02-11T09:18:18.689Z,21.17
2023-02-11T09:20:47.196Z,22.67
2023-02-11T09:23:18.254Z,24.23
2023-02-11T09:25:47.091Z,24.57
2023-02-11T09:28:15.478Z,24.83
2023-02-11T09:30:43.916Z,24.87
2023-02-11T09:33:13.659Z,25.43
2023-02-11T09:35:41.939Z,25.60
2023-02-11T09:38:10.796Z,25.10
2023-02-11T09:40:43.595Z,23.87
2023-02-11T09:43:14.487Z,24.30
2023-02-11T09:45:42.687Z,23.97
2023-02-11T09:48:16.735Z,25.17
2023-02-11T09:50:46.189Z,23.17
2023-02-11T09:53:17.242Z,25.00
2023-02-11T09:55:47.987Z,22.60
2023-02-11T09:58:18.322Z,26.40
2023-02-11T10:00:49.001Z,26.00
2023-02-11T10:03:41.440Z,26.23
2023-02-11T10:06:19.665Z,24.97
2023-02-11T10:08:52.888Z,21.33
2023-02-11T10:11:31.552Z,24.50
2023-02-11T10:14:10.509Z,22.57
2023-02-11T10:16:46.474Z,23.30
2023-02-11T10:19:21.373Z,24.23
2023-02-11T10:21:55.292Z,24.83
2023-02-11T10:24:23.630Z,23.57
2023-02-11T10:26:53.044Z,26.50
2023-02-11T10:29:28.142Z,26.20
2023-02-11T10:31:58.415Z,27.63
2023-02-11T10:34:26.859Z,25.67
2023-02-11T10:36:56.554Z,25.50
2023-02-11T10:39:25.732Z,26.67
2023-02-11T10:41:55.299Z,26.10
2023-02-11T10:44:28.096Z,25.70
2023-02-11T10:46:57.638Z,27.90
2023-02-11T10:49:36.571Z,25.80
2023-02-11T10:52:20.189Z,28.00
2023-02-11T10:54:58.530Z,23.67
2023-02-11T10:57:29.896Z,21.90
2023-02-11T11:00:01.269Z,25.20
2023-02-11T11:02:32.238Z,24.73
2023-02-11T11:05:01.540Z,24.10
2023-02-11T11:07:32.418Z,26.83
2023-02-11T11:10:03.632Z,24.97
2023-02-11T11:12:34.989Z,26.53
2023-02-11T11:15:05.376Z,24.90
2023-02-11T11:17:33.812Z,26.07
2023-02-11T11:20:21.047Z,25.17
2023-02-11T11:22:52.519Z,23.07
2023-02-11T11:25:25.751Z,25.67
2023-02-11T11:27:55.831Z,25.27
2023-02-11T11:30:25.558Z,25.87
2023-02-11T11:32:54.057Z,24.87
2023-02-11T11:35:25.152Z,26.23
2023-02-11T11:38:02.342Z,26.07
2023-02-11T11:40:31.618Z,25.23
2023-02-11T11:43:08.257Z,26.93
2023-02-11T11:45:36.624Z,25.27
2023-02-11T11:48:08.970Z,26.70
2023-02-11T11:50:38.898Z,26.93
2023-02-11T11:53:12.389Z,26.37
2023-02-11T11:55:45.119Z,27.00
2023-02-11T11:58:17.162Z,26.67
2023-02-11T12:00:50.815Z,26.00
2023-02-11T12:03:30.749Z,24.47
2023-02-11T12:06:12.078Z,24.00
2023-02-11T12:08:45.187Z,26.17
2023-02-11T12:11:22.101Z,25.07
2023-02-11T12:14:15.202Z,25.47
2023-02-11T12:16:48.905Z,23.33
2023-02-11T12:19:44.166Z,22.53
2023-02-11T12:22:13.958Z,25.83
2023-02-11T12:24:57.056Z,26.30
2023-02-11T12:27:39.965Z,28.30
2023-02-11T12:30:15.555Z,27.53
2023-02-11T12:32:48.416Z,28.63
2023-02-11T12:35:37.076Z,24.40
2023-02-11T12:38:27.672Z,28.13
2023-02-11T12:41:04.192Z,27.60
2023-02-11T12:43:34.754Z,30.60
2023-02-11T12:46:21.065Z,29.53
2023-02-11T12:48:56.763Z,27.73
2023-02-11T12:51:32.050Z,26.97
2023-02-11T12:54:21.458Z,26.37
2023-02-11T12:56:53.925Z,26.20
2023-02-11T12:59:26.963Z,28.10
2023-02-11T13:01:55.847Z,28.67
2023-02-11T13:04:27.336Z,28.50
2023-02-11T13:06:58.586Z,28.00
2023-02-11T13:09:28.928Z,28.03
2023-02-11T13:12:19.735Z,29.80
2023-02-11T13:14:49.521Z,29.67
2023-02-11T13:17:19.723Z,27.23
2023-02-11T13:19:52.419Z,24.97
2023-02-11T13:22:22.759Z,28.03
2023-02-11T13:24:57.157Z,27.07
2023-02-11T13:27:32.245Z,25.97
2023-02-11T13:30:15.212Z,29.27
2023-02-11T13:33:06.592Z,28.37
2023-02-11T13:35:35.830Z,28.37
2023-02-11T13:38:05.189Z,27.67
2023-02-11T13:40:35.126Z,28.67
2023-02-11T13:43:06.244Z,27.47
2023-02-11T13:45:37.975Z,27.60
2023-02-11T13:48:08.204Z,28.93
2023-02-11T13:50:40.472Z,28.97
2023-02-11T13:53:09.162Z,26.40
2023-02-11T13:55:38.181Z,26.10
2023-02-11T13:58:37.160Z,25.47
2023-02-11T14:01:05.660Z,24.70
2023-02-11T14:03:56.522Z,26.00
2023-02-11T14:06:43.612Z,28.80
2023-02-11T14:09:26.772Z,26.60
2023-02-11T14:12:15.376Z,25.73
2023-02-11T14:15:16.695Z,26.40
2023-02-11T14:17:46.466Z,25.10
2023-02-11T14:20:48.040Z,25.23
2023-02-11T14:23:24.846Z,25.07
2023-02-11T14:25:58.601Z,24.60
2023-02-11T14:28:34.953Z,25.10
2023-02-11T14:31:11.247Z,26.53
2023-02-11T14:33:57.311Z,25.40
2023-02-11T14:36:43.760Z,24.43
2023-02-11T14:39:22.486Z,26.13
2023-02-11T14:41:52.031Z,23.97
2023-02-11T14:44:23.962Z,26.07
2023-02-11T14:46:53.692Z,26.77
2023-02-11T14:49:27.119Z,23.50
2023-02-11T14:52:00.559Z,27.00
2023-02-11T14:54:29.911Z,25.10
2023-02-11T14:57:08.663Z,25.00
2023-02-11T14:59:37.211Z,23.87
2023-02-11T15:02:07.144Z,26.87
2023-02-11T15:04:37.862Z,26.13
2023-02-11T15:07:11.936Z,25.67
2023-02-11T15:09:42.790Z,27.97
2023-02-11T15:12:19.983Z,26.13
2023-02-11T15:14:50.146Z,25.27
2023-02-11T15:17:20.063Z,27.00
2023-02-11T15:19:52.709Z,27.83
2023-02-11T15:22:25.048Z,26.87
2023-02-11T15:25:01.330Z,25.80
2023-02-11T15:27:29.528Z,25.10
2023-02-11T15:29:57.898Z,27.07
2023-02-11T15:32:27.020Z,25.57
2023-02-11T15:34:56.851Z,24.87
2023-02-11T15:37:28.690Z,24.97
2023-02-11T15:40:09.453Z,24.83
2023-02-11T15:42:51.782Z,25.80
2023-02-11T15:45:28.741Z,26.13
2023-02-11T15:48:03.096Z,23.63
2023-02-11T15:50:32.877Z,24.50
2023-02-11T15:53:06.849Z,24.90
2023-02-11T15:55:35.049Z,23.60
2023-02-11T15:58:03.501Z,26.47
2023-02-11T16:00:36.133Z,27.07
2023-02-11T16:03:05.210Z,25.67
2023-02-11T16:05:34.537Z,25.53
2023-02-11T16:08:14.943Z,25.23
2023-02-11T16:10:58.462Z,24.70
2023-02-11T16:13:28.244Z,26.10
2023-02-11T16:15:58.263Z,25.43
2023-02-11T16:18:40.330Z,24.43
2023-02-11T16:21:16.804Z,24.17
2023-02-11T16:23:53.496Z,24.23
2023-02-11T16:26:27.794Z,25.77
2023-02-11T16:29:03.618Z,24.03
2023-02-11T16:31:35.052Z,24.77
2023-02-11T16:34:03.083Z,22.00
2023-02-11T16:36:31.617Z,22.17
2023-02-11T16:39:01.264Z,21.77
2023-02-11T16:41:29.716Z,24.97
2023-02-11T16:43:58.918Z,23.70
2023-02-11T16:46:27.494Z,22.87
2023-02-11T16:48:56.103Z,25.40
2023-02-11T16:51:24.457Z,25.87
2023-02-11T16:53:52.788Z,23.30
2023-02-11T16:56:22.225Z,23.53
2023-02-11T16:58:50.555Z,23.00
2023-02-11T17:01:18.948Z,25.53
2023-02-11T17:03:47.104Z,24.40
2023-02-11T17:06:15.582Z,24.20
2023-02-11T17:08:44.438Z,24.57
2023-02-11T17:11:16.683Z,23.77
2023-02-11T17:13:46.556Z,23.10
2023-02-11T17:16:18.854Z,21.47
2023-02-11T17:18:47.302Z,25.13
2023-02-11T17:21:15.645Z,22.97
2023-02-11T17:23:45.775Z,21.90
2023-02-11T17:26:14.161Z,24.63
2023-02-11T17:28:43.410Z,22.90
2023-02-11T17:31:13.216Z,23.60
2023-02-11T17:33:41.636Z,22.90
2023-02-11T17:36:10.788Z,24.73
2023-02-11T17:38:39.309Z,21.97
2023-02-11T17:41:07.850Z,23.63
2023-02-11T17:43:36.224Z,23.27
2023-02-11T17:46:08.451Z,22.17
2023-02-11T17:48:38.395Z,22.50
2023-02-11T17:51:08.759Z,20.97
2023-02-11T17:53:37.209Z,23.37
2023-02-11T17:56:07.254Z,23.40
2023-02-11T17:58:35.601Z,23.50
2023-02-11T18:01:04.005Z,24.30
2023-02-11T18:03:33.063Z,22.07
2023-02-11T18:06:03.871Z,22.67
2023-02-11T18:08:32.213Z,25.27
2023-02-11T18:11:00.539Z,24.77
2023-02-11T18:13:29.442Z,22.57
2023-02-11T18:16:03.097Z,24.00
2023-02-11T18:18:31.581Z,24.03
2023-02-11T18:21:00.524Z,23.17
2023-02-11T18:23:30.014Z,24.50
2023-02-11T18:25:58.392Z,23.73
2023-02-11T18:28:26.825Z,26.27
2023-02-11T18:30:58.597Z,26.03
2023-02-11T18:33:28.522Z,21.73
2023-02-11T18:35:57.054Z,24.17
2023-02-11T18:38:25.681Z,22.17
2023-02-11T18:40:58.732Z,23.73
2023-02-11T18:43:31.497Z,23.43
2023-02-11T18:45:59.932Z,22.67
2023-02-11T18:48:28.522Z,23.43
2023-02-11T18:50:57.180Z,23.83
2023-02-11T18:53:25.829Z,21.97
2023-02-11T18:55:55.858Z,24.63
2023-02-11T18:58:24.373Z,24.00
2023-02-11T19:00:52.789Z,26.03
2023-02-11T19:03:21.228Z,23.67
2023-02-11T19:05:51.051Z,23.33
2023-02-11T19:08:19.546Z,22.40
2023-02-11T19:10:49.363Z,23.33
2023-02-11T19:13:18.855Z,24.40
2023-02-11T19:15:47.605Z,23.73
2023-02-11T19:18:17.461Z,23.40
2023-02-11T19:20:45.996Z,22.57
2023-02-11T19:23:14.353Z,25.53
2023-02-11T19:25:46.901Z,24.57
2023-02-11T19:28:15.812Z,22.33
2023-02-11T19:30:45.809Z,23.77
2023-02-11T19:33:14.352Z,23.97
2023-02-11T19:35:42.663Z,22.83
2023-02-11T19:38:12.865Z,22.50
2023-02-11T19:40:41.248Z,24.13
2023-02-11T19:43:09.283Z,25.73
2023-02-11T19:45:40.064Z,23.57
2023-02-11T19:48:12.566Z,24.67
2023-02-11T19:50:40.885Z,24.53
2023-02-11T19:53:09.297Z,24.30
2023-02-11T19:55:37.867Z,24.77
2023-02-11T19:58:06.039Z,25.93
2023-02-11T20:00:34.507Z,24.37
2023-02-11T20:03:02.932Z,24.70
2023-02-11T20:05:33.009Z,25.63
2023-02-11T20:08:01.390Z,25.47
2023-02-11T20:10:29.794Z,23.07
2023-02-11T20:12:58.182Z,24.57
2023-02-11T20:15:26.550Z,24.67
2023-02-11T20:17:54.895Z,24.73
2023-02-11T20:20:23.340Z,24.97
2023-02-11T20:22:53.084Z,22.40
2023-02-11T20:25:21.401Z,22.47
2023-02-11T20:27:49.790Z,24.13
2023-02-11T20:30:18.185Z,24.80
2023-02-11T20:32:46.570Z,26.70
2023-02-11T20:35:14.987Z,22.47
2023-02-11T20:37:44.245Z,25.33
2023-02-11T20:40:14.574Z,25.70
2023-02-11T20:42:42.955Z,24.97
2023-02-11T20:45:11.765Z,22.93
2023-02-11T20:47:40.067Z,25.60
2023-02-11T20:50:09.102Z,25.57
2023-02-11T20:52:37.415Z,25.03
2023-02-11T20:55:06.046Z,25.63
2023-02-11T20:57:35.772Z,25.60
2023-02-11T21:00:04.362Z,26.67
2023-02-11T21:02:32.657Z,26.87
2023-02-11T21:05:00.817Z,26.83
2023-02-11T21:07:29.659Z,26.63
2023-02-11T21:09:58.008Z,26.03
2023-02-11T21:12:26.359Z,24.80
2023-02-11T21:14:57.938Z,24.80
2023-02-11T21:17:27.558Z,26.23
2023-02-11T21:19:55.957Z,27.50
2023-02-11T21:22:24.344Z,25.53
2023-02-11T21:24:52.803Z,25.80
2023-02-11T21:27:21.145Z,24.60
2023-02-11T21:29:54.401Z,28.20
2023-02-11T21:32:24.083Z,26.70
2023-02-11T21:34:52.480Z,27.77
2023-02-11T21:37:20.811Z,28.33
2023-02-11T21:39:49.252Z,27.20
2023-02-11T21:42:17.601Z,26.87
2023-02-11T21:44:46.012Z,26.80
2023-02-11T21:47:14.636Z,28.07
2023-02-11T21:49:44.251Z,28.10
2023-02-11T21:52:12.549Z,26.13
2023-02-11T21:54:40.967Z,27.40
2023-02-11T21:57:09.286Z,28.10
2023-02-11T21:59:37.681Z,29.87
2023-02-11T22:02:06.074Z,30.23
2023-02-11T22:04:35.531Z,28.43
2023-02-11T22:07:04.943Z,30.03
2023-02-11T22:09:32.991Z,28.17
2023-02-11T22:12:01.292Z,28.70
2023-02-11T22:14:32.176Z,27.43
2023-02-11T22:17:00.736Z,30.30
2023-02-11T22:19:29.093Z,30.13
2023-02-11T22:21:57.503Z,31.43
2023-02-11T22:24:27.248Z,28.27
2023-02-11T22:26:55.596Z,30.43
2023-02-11T22:29:23.918Z,29.43
2023-02-11T22:31:52.284Z,28.97
2023-02-11T22:34:20.645Z,31.30
2023-02-11T22:36:49.008Z,29.33
2023-02-11T22:39:18.594Z,28.60
2023-02-11T22:41:48.845Z,31.23
2023-02-11T22:44:18.387Z,28.50
2023-02-11T22:46:46.756Z,27.23
2023-02-11T22:49:16.402Z,30.27
2023-02-11T22:51:44.890Z,30.20
2023-02-11T22:54:14.686Z,28.60
2023-02-11T22:56:43.117Z,30.63
2023-02-11T22:59:15.564Z,29.03
2023-02-11T23:01:44.328Z,28.50
2023-02-11T23:04:14.158Z,29.77
2023-02-11T23:06:42.554Z,28.97
2023-02-11T23:09:12.281Z,29.97
2023-02-11T23:11:41.335Z,29.23
2023-02-11T23:14:12.160Z,30.57
2023-02-11T23:16:42.077Z,28.87
2023-02-11T23:19:12.333Z,29.47
2023-02-11T23:21:41.193Z,30.23
2023-02-11T23:24:12.557Z,29.80
2023-02-11T23:26:41.863Z,29.97
2023-02-11T23:29:10.315Z,30.03
2023-02-11T23:31:40.486Z,31.73
2023-02-11T23:34:10.875Z,28.07
2023-02-11T23:36:39.584Z,29.23
2023-02-11T23:39:07.989Z,28.63
2023-02-11T23:41:36.673Z,28.60
2023-02-11T23:44:05.038Z,28.63
2023-02-11T23:46:33.522Z,29.07
2023-02-11T23:49:02.142Z,29.10
2023-02-11T23:51:31.758Z,29.93
2023-02-11T23:54:00.135Z,32.07
2023-02-11T23:56:29.271Z,29.27
2023-02-11T23:58:59.059Z,28.37
